Friday, July 20, 2018, 8:14 PM EDT
Back to Local

KSEG, Selinsgrove Penn Valley Airport

Location: Selinsgrove, PA, United States Lat: 40.817
Local Time: 8:14 PM EDT ( 0:14 GMT) Lon: -76.867
Time Zone: US/Eastern Elev: 449 ft

Show me the last for .
Show Decoded

2018-07-20 19:53 METAR KSEG 202353Z AUTO 13008KT 10SM CLR 25/15 A3004 RMK AO2 SLP169 T02500150
                 10294 20250 55003 =
2018-07-20 18:53 METAR KSEG 202253Z AUTO 14007KT 10SM CLR 27/15 A3003 RMK AO2 SLP167 T02670150 =
2018-07-20 17:53 METAR KSEG 202153Z AUTO 15013G18KT 10SM SCT065 27/13 A3003 RMK AO2 SLP167
                 T02720133 =
2018-07-20 16:53 METAR KSEG 202053Z AUTO 16008KT 10SM FEW065 28/15 A3005 RMK AO2 SLP171 T02830150
                 56018 =
2018-07-20 15:53 METAR KSEG 201953Z AUTO 15010KT 10SM FEW065 29/15 A3006 RMK AO2 SLP176 T02890150
                 =
2018-07-20 14:53 METAR KSEG 201853Z AUTO 16008KT 10SM FEW060 28/15 A3008 RMK AO2 SLP182 T02830150
                 =
2018-07-20 13:53 METAR KSEG 201753Z AUTO 17010G15KT 10SM FEW060 29/14 A3010 RMK AO2 SLP190
                 T02890144 10289 20178 56012 =
2018-07-20 12:53 METAR KSEG 201653Z AUTO 20008KT 170V230 10SM FEW055 28/14 A3011 RMK AO2 SLP193
                 T02830144 =
2018-07-20 11:53 METAR KSEG 201553Z AUTO 15008KT 10SM FEW055 27/16 A3012 RMK AO2 SLP198 T02720161
                 =
2018-07-20 10:53 METAR KSEG 201453Z AUTO 15007KT 10SM CLR 26/17 A3014 RMK AO2 SLP202 T02610172
                 58003 =
2018-07-20 09:53 METAR KSEG 201353Z AUTO 00000KT 10SM CLR 23/17 A3014 RMK AO2 SLP204 T02330167 =
2018-07-20 08:53 METAR KSEG 201253Z AUTO 00000KT 10SM CLR 21/16 A3015 RMK AO2 SLP206 T02060156 =
2018-07-20 07:53 METAR KSEG 201153Z AUTO 00000KT 10SM CLR 18/15 A3015 RMK AO2 SLP205 T01780150
                 10178 20133 53007 =
2018-07-20 06:53 METAR KSEG 201053Z AUTO 32003KT 10SM CLR 15/14 A3014 RMK AO2 SLP202 T01500139 =
2018-07-20 05:53 METAR KSEG 200953Z AUTO 00000KT 9SM CLR 13/13 A3013 RMK AO2 SLP200 T01330128 =
2018-07-20 04:53 METAR KSEG 200853Z AUTO 00000KT 10SM CLR 14/13 A3012 RMK AO2 SLP198 T01390128
                 53002 =
2018-07-20 03:53 METAR KSEG 200753Z AUTO 00000KT 10SM CLR 14/13 A3012 RMK AO2 SLP195 T01440133 =
2018-07-20 02:53 METAR KSEG 200653Z AUTO 00000KT 10SM CLR 15/14 A3011 RMK AO2 SLP195 T01500139 =
2018-07-20 01:53 METAR KSEG 200553Z AUTO 00000KT 10SM CLR 15/14 A3012 RMK AO2 SLP196 T01500139
                 10244 20150 51006 =
2018-07-20 00:53 METAR KSEG 200453Z AUTO 32003KT 10SM CLR 16/14 A3011 RMK AO2 SLP195 T01560144
                 402890122 =
2018-07-19 23:53 METAR KSEG 200353Z AUTO 00000KT 10SM CLR 17/14 A3011 RMK AO2 SLP192 T01670144 =
2018-07-19 22:53 METAR KSEG 200253Z AUTO 00000KT 10SM CLR 17/16 A3010 RMK AO2 SLP190 T01720156
                 53012 =
2018-07-19 21:53 METAR KSEG 200153Z AUTO 00000KT 10SM CLR 19/16 A3009 RMK AO2 SLP186 T01890156 =
2018-07-19 20:53 METAR KSEG 200053Z AUTO 31003KT 10SM CLR 22/14 A3007 RMK AO2 SLP181 T02170144 =

Support USWX by starting your Amazon purchase here.